createdAt,value
2017-12-10T00:00:13.517Z,1.90
2017-12-10T00:02:40.980Z,1.83
2017-12-10T00:05:08.521Z,2.33
2017-12-10T00:07:36.030Z,2.50
2017-12-10T00:10:03.553Z,2.07
2017-12-10T00:12:31.410Z,1.97
2017-12-10T00:14:59.016Z,1.60
2017-12-10T00:17:26.450Z,2.37
2017-12-10T00:19:53.837Z,2.00
2017-12-10T00:22:21.270Z,1.50
2017-12-10T00:24:48.688Z,1.90
2017-12-10T00:27:16.219Z,1.93
2017-12-10T00:29:43.630Z,1.70
2017-12-10T00:32:11.063Z,1.40
2017-12-10T00:34:38.458Z,1.70
2017-12-10T00:37:05.846Z,1.50
2017-12-10T00:39:33.427Z,1.77
2017-12-10T00:42:00.938Z,2.37
2017-12-10T00:44:28.454Z,1.67
2017-12-10T00:46:55.850Z,1.90
2017-12-10T00:49:23.307Z,1.63
2017-12-10T00:51:50.706Z,1.70
2017-12-10T00:54:18.142Z,1.50
2017-12-10T00:56:45.534Z,2.10
2017-12-10T00:59:13.014Z,1.83
2017-12-10T01:01:40.410Z,1.87
2017-12-10T01:04:07.924Z,1.93
2017-12-10T01:06:35.378Z,1.50
2017-12-10T01:09:03.792Z,2.00
2017-12-10T01:11:31.280Z,2.37
2017-12-10T01:13:59.100Z,1.70
2017-12-10T01:16:26.589Z,1.90
2017-12-10T01:18:54.059Z,1.97
2017-12-10T01:21:21.545Z,2.07
2017-12-10T01:23:48.974Z,1.83
2017-12-10T01:26:16.404Z,1.97
2017-12-10T01:28:43.938Z,1.70
2017-12-10T01:31:11.335Z,1.90
2017-12-10T01:33:38.773Z,2.27
2017-12-10T01:36:06.265Z,1.83
2017-12-10T01:38:33.670Z,1.57
2017-12-10T01:41:01.593Z,2.37
2017-12-10T01:43:29.097Z,2.00
2017-12-10T01:45:56.518Z,2.00
2017-12-10T01:48:23.914Z,1.73
2017-12-10T01:50:51.343Z,1.80
2017-12-10T01:53:18.776Z,1.90
2017-12-10T01:55:46.272Z,1.80
2017-12-10T01:58:13.674Z,2.03
2017-12-10T02:00:41.272Z,1.50
2017-12-10T02:03:08.671Z,2.10
2017-12-10T02:05:36.098Z,1.87
2017-12-10T02:08:03.519Z,1.90
2017-12-10T02:10:31.148Z,2.23
2017-12-10T02:12:58.684Z,2.17
2017-12-10T02:15:26.107Z,1.63
2017-12-10T02:17:53.498Z,1.80
2017-12-10T02:20:21.024Z,1.20
2017-12-10T02:22:48.438Z,1.63
2017-12-10T02:25:15.871Z,2.07
2017-12-10T02:27:43.286Z,2.03
2017-12-10T02:30:10.722Z,2.03
2017-12-10T02:32:38.184Z,1.80
2017-12-10T02:35:05.639Z,1.60
2017-12-10T02:37:33.102Z,1.50
2017-12-10T02:40:00.662Z,1.57
2017-12-10T02:42:28.332Z,1.90
2017-12-10T02:44:55.822Z,1.70
2017-12-10T02:47:23.252Z,1.57
2017-12-10T02:49:50.697Z,1.70
2017-12-10T02:52:18.183Z,1.53
2017-12-10T02:54:45.587Z,1.50
2017-12-10T02:57:13.081Z,1.93
2017-12-10T02:59:40.466Z,1.97
2017-12-10T03:02:07.894Z,1.90
2017-12-10T03:04:35.286Z,1.57
2017-12-10T03:07:02.808Z,1.67
2017-12-10T03:09:30.315Z,1.60
2017-12-10T03:11:58.513Z,1.33
2017-12-10T03:14:25.992Z,2.07
2017-12-10T03:16:53.415Z,1.73
2017-12-10T03:19:20.809Z,1.70
2017-12-10T03:21:48.311Z,1.87
2017-12-10T03:24:15.744Z,2.27
2017-12-10T03:26:43.175Z,1.63
2017-12-10T03:29:10.630Z,2.07
2017-12-10T03:31:38.343Z,1.63
2017-12-10T03:34:05.739Z,1.63
2017-12-10T03:36:33.230Z,1.70
2017-12-10T03:39:00.767Z,1.47
2017-12-10T03:41:28.568Z,2.00
2017-12-10T03:43:56.149Z,1.90
2017-12-10T03:46:24.014Z,1.43
2017-12-10T03:48:51.420Z,1.50
2017-12-10T03:51:18.929Z,1.80
2017-12-10T03:53:46.546Z,2.00
2017-12-10T03:56:13.954Z,1.60
2017-12-10T03:58:41.467Z,1.50
2017-12-10T04:01:08.890Z,1.83
2017-12-10T04:03:36.327Z,1.30
2017-12-10T04:06:03.817Z,1.70
2017-12-10T04:08:36.567Z,2.13
2017-12-10T04:11:04.035Z,1.80
2017-12-10T04:13:31.546Z,1.70
2017-12-10T04:15:59.331Z,1.57
2017-12-10T04:18:27.091Z,1.60
2017-12-10T04:20:54.538Z,1.17
2017-12-10T04:23:22.018Z,1.50
2017-12-10T04:25:49.710Z,1.70
2017-12-10T04:28:17.194Z,1.90
2017-12-10T04:30:44.621Z,1.80
2017-12-10T04:33:12.050Z,2.27
2017-12-10T04:35:39.446Z,1.80
2017-12-10T04:38:06.938Z,1.67
2017-12-10T04:40:34.416Z,1.67
2017-12-10T04:43:01.883Z,1.43
2017-12-10T04:45:29.860Z,1.50
2017-12-10T04:47:57.343Z,2.07
2017-12-10T04:50:24.748Z,1.90
2017-12-10T04:52:52.281Z,1.60
2017-12-10T04:55:19.741Z,2.10
2017-12-10T04:57:47.293Z,1.93
2017-12-10T05:00:14.858Z,2.13
2017-12-10T05:02:42.254Z,1.87
2017-12-10T05:05:09.701Z,1.80
2017-12-10T05:07:37.083Z,1.50
2017-12-10T05:10:04.520Z,1.80
2017-12-10T05:12:31.984Z,2.57
2017-12-10T05:15:00.062Z,1.73
2017-12-10T05:17:27.667Z,1.90
2017-12-10T05:19:55.150Z,1.80
2017-12-10T05:22:22.537Z,2.07
2017-12-10T05:24:49.966Z,1.80
2017-12-10T05:27:17.511Z,1.77
2017-12-10T05:29:44.910Z,1.90
2017-12-10T05:32:12.410Z,1.70
2017-12-10T05:34:39.875Z,1.73
2017-12-10T05:37:07.278Z,2.10
2017-12-10T05:39:35.534Z,1.90
2017-12-10T05:42:02.986Z,2.00
2017-12-10T05:44:30.704Z,1.80
2017-12-10T05:46:58.125Z,2.17
2017-12-10T05:49:25.613Z,2.10
2017-12-10T05:51:53.010Z,1.87
2017-12-10T05:54:20.458Z,2.23
2017-12-10T05:56:47.926Z,2.03
2017-12-10T05:59:15.386Z,1.43
2017-12-10T06:01:42.791Z,1.77
2017-12-10T06:04:10.254Z,2.07
2017-12-10T06:06:37.638Z,1.90
2017-12-10T06:09:05.082Z,2.33
2017-12-10T06:11:32.505Z,2.37
2017-12-10T06:14:00.027Z,1.63
2017-12-10T06:16:27.474Z,2.40
2017-12-10T06:18:54.891Z,2.47
2017-12-10T06:21:22.318Z,1.80
2017-12-10T06:23:49.714Z,1.90
2017-12-10T06:26:17.174Z,1.70
2017-12-10T06:28:44.576Z,2.27
2017-12-10T06:31:12.022Z,2.17
2017-12-10T06:33:39.464Z,2.63
2017-12-10T06:36:06.902Z,3.00
2017-12-10T06:38:34.304Z,2.13
2017-12-10T06:41:01.786Z,1.77
2017-12-10T06:43:29.211Z,2.30
2017-12-10T06:45:56.736Z,2.07
2017-12-10T06:48:24.199Z,2.40
2017-12-10T06:50:51.623Z,2.00
2017-12-10T06:53:19.020Z,1.90
2017-12-10T06:55:46.564Z,1.90
2017-12-10T06:58:14.687Z,2.13
2017-12-10T07:00:42.143Z,2.30
2017-12-10T07:03:09.581Z,2.17
2017-12-10T07:05:37.029Z,1.97
2017-12-10T07:08:04.422Z,1.77
2017-12-10T07:10:31.873Z,2.00
2017-12-10T07:12:59.331Z,2.07
2017-12-10T07:15:26.775Z,1.70
2017-12-10T07:17:54.171Z,1.90
2017-12-10T07:20:21.650Z,1.93
2017-12-10T07:22:49.107Z,1.73
2017-12-10T07:25:16.508Z,1.83
2017-12-10T07:27:44.014Z,1.70
2017-12-10T07:30:11.448Z,2.00
2017-12-10T07:32:38.958Z,1.43
2017-12-10T07:35:06.345Z,1.80
2017-12-10T07:37:33.790Z,2.63
2017-12-10T07:40:01.193Z,1.70
2017-12-10T07:42:28.650Z,1.70
2017-12-10T07:44:56.102Z,1.60
2017-12-10T07:47:23.544Z,2.00
2017-12-10T07:49:51.034Z,1.60
2017-12-10T07:52:18.482Z,2.07
2017-12-10T07:54:45.894Z,2.47
2017-12-10T07:57:13.330Z,2.10
2017-12-10T07:59:40.735Z,2.07
2017-12-10T08:02:08.166Z,2.57
2017-12-10T08:04:35.560Z,2.33
2017-12-10T08:07:03.019Z,2.47
2017-12-10T08:09:30.415Z,2.17
2017-12-10T08:11:57.875Z,2.50
2017-12-10T08:14:25.274Z,2.80
2017-12-10T08:16:52.738Z,2.53
2017-12-10T08:19:20.164Z,2.50
2017-12-10T08:21:47.577Z,2.53
2017-12-10T08:24:15.119Z,2.93
2017-12-10T08:26:42.520Z,2.53
2017-12-10T08:29:10.021Z,2.40
2017-12-10T08:31:37.419Z,2.87
2017-12-10T08:34:04.877Z,2.53
2017-12-10T08:36:32.477Z,2.77
2017-12-10T08:38:59.966Z,2.80
2017-12-10T08:41:27.414Z,2.90
2017-12-10T08:43:54.998Z,2.80
2017-12-10T08:46:22.387Z,2.97
2017-12-10T08:48:49.922Z,2.97
2017-12-10T08:51:17.326Z,2.70
2017-12-10T08:53:44.765Z,2.67
2017-12-10T08:56:12.158Z,3.10
2017-12-10T08:58:39.697Z,2.80
2017-12-10T09:01:07.306Z,2.87
2017-12-10T09:03:34.772Z,2.87
2017-12-10T09:06:02.172Z,2.90
2017-12-10T09:08:29.640Z,2.80
2017-12-10T09:10:57.053Z,2.63
2017-12-10T09:13:24.483Z,2.60
2017-12-10T09:15:51.971Z,2.93
2017-12-10T09:18:19.470Z,2.63
2017-12-10T09:20:46.887Z,2.40
2017-12-10T09:23:14.346Z,2.77
2017-12-10T09:25:41.985Z,2.57
2017-12-10T09:28:09.368Z,2.90
2017-12-10T09:30:36.806Z,3.40
2017-12-10T09:33:04.203Z,2.50
2017-12-10T09:35:31.656Z,2.57
2017-12-10T09:37:59.085Z,2.27
2017-12-10T09:40:26.527Z,2.97
2017-12-10T09:42:53.930Z,2.30
2017-12-10T09:45:21.369Z,2.27
2017-12-10T09:47:48.779Z,2.30
2017-12-10T09:50:16.275Z,2.43
2017-12-10T09:52:43.686Z,2.23
2017-12-10T09:55:11.127Z,2.23
2017-12-10T09:57:38.571Z,2.27
2017-12-10T10:00:07.121Z,2.17
2017-12-10T10:02:34.518Z,2.60
2017-12-10T10:05:02.015Z,1.77
2017-12-10T10:07:29.474Z,2.40
2017-12-10T10:09:57.041Z,1.97
2017-12-10T10:12:24.439Z,1.53
2017-12-10T10:14:51.960Z,2.00
2017-12-10T10:17:19.354Z,1.83
2017-12-10T10:19:46.950Z,1.60
2017-12-10T10:22:14.382Z,1.77
2017-12-10T10:24:41.970Z,1.67
2017-12-10T10:27:09.382Z,1.50
2017-12-10T10:29:36.899Z,1.47
2017-12-10T10:32:04.299Z,2.00
2017-12-10T10:34:32.571Z,1.80
2017-12-10T10:37:00.019Z,1.90
2017-12-10T10:39:27.518Z,1.60
2017-12-10T10:41:54.940Z,1.77
2017-12-10T10:44:22.330Z,2.20
2017-12-10T10:46:49.821Z,2.17
2017-12-10T10:49:17.314Z,1.80
2017-12-10T10:51:44.756Z,1.80
2017-12-10T10:54:12.242Z,2.03
2017-12-10T10:56:39.690Z,1.90
2017-12-10T10:59:07.138Z,1.83
2017-12-10T11:01:34.582Z,1.80
2017-12-10T11:04:02.003Z,2.27
2017-12-10T11:06:29.468Z,1.70
2017-12-10T11:08:56.877Z,2.07
2017-12-10T11:11:24.319Z,1.90
2017-12-10T11:13:51.749Z,2.50
2017-12-10T11:16:19.209Z,1.40
2017-12-10T11:18:47.627Z,1.67
2017-12-10T11:21:15.074Z,2.10
2017-12-10T11:23:42.503Z,1.83
2017-12-10T11:26:09.963Z,1.93
2017-12-10T11:28:37.378Z,2.00
2017-12-10T11:31:04.827Z,2.00
2017-12-10T11:33:32.238Z,1.67
2017-12-10T11:35:59.726Z,1.73
2017-12-10T11:38:27.174Z,1.87
2017-12-10T11:40:54.662Z,1.70
2017-12-10T11:43:22.162Z,1.60
2017-12-10T11:45:49.615Z,1.47
2017-12-10T11:48:17.201Z,1.83
2017-12-10T11:50:44.594Z,1.23
2017-12-10T11:53:12.049Z,1.70
2017-12-10T11:55:39.493Z,1.67
2017-12-10T11:58:06.968Z,1.90
2017-12-10T12:00:34.392Z,1.90
2017-12-10T12:03:01.835Z,1.50
2017-12-10T12:05:29.328Z,1.47
2017-12-10T12:07:56.965Z,1.90
2017-12-10T12:10:24.365Z,1.90
2017-12-10T12:12:51.799Z,1.90
2017-12-10T12:15:20.107Z,2.03
2017-12-10T12:17:47.581Z,1.30
2017-12-10T12:20:14.972Z,1.90
2017-12-10T12:22:42.583Z,1.70
2017-12-10T12:25:10.002Z,2.30
2017-12-10T12:27:37.441Z,1.60
2017-12-10T12:30:04.887Z,1.77
2017-12-10T12:32:32.363Z,1.80
2017-12-10T12:34:59.792Z,1.93
2017-12-10T12:37:27.248Z,1.90
2017-12-10T12:39:54.634Z,1.80
2017-12-10T12:42:22.140Z,1.93
2017-12-10T12:44:49.594Z,1.50
2017-12-10T12:47:16.996Z,1.47
2017-12-10T12:49:44.490Z,1.40
2017-12-10T12:52:11.886Z,1.70
2017-12-10T12:54:39.375Z,1.27
2017-12-10T12:57:06.775Z,1.80
2017-12-10T12:59:34.319Z,1.33
2017-12-10T13:02:01.731Z,1.50
2017-12-10T13:04:29.181Z,1.50
2017-12-10T13:06:56.578Z,1.47
2017-12-10T13:09:24.102Z,1.40
2017-12-10T13:11:51.516Z,1.20
2017-12-10T13:14:18.946Z,1.77
2017-12-10T13:16:46.426Z,1.40
2017-12-10T13:19:13.968Z,1.00
2017-12-10T13:21:41.358Z,1.57
2017-12-10T13:24:08.798Z,1.20
2017-12-10T13:26:36.191Z,1.30
2017-12-10T13:29:03.639Z,1.40
2017-12-10T13:31:31.048Z,1.50
2017-12-10T13:33:58.547Z,1.10
2017-12-10T13:36:25.930Z,1.50
2017-12-10T13:38:53.435Z,1.13
2017-12-10T13:41:20.924Z,1.27
2017-12-10T13:43:48.403Z,1.30
2017-12-10T13:46:15.844Z,1.57
2017-12-10T13:48:43.287Z,1.53
2017-12-10T13:51:10.678Z,1.23
2017-12-10T13:53:38.115Z,1.10
2017-12-10T13:56:05.662Z,1.30
2017-12-10T13:58:33.118Z,1.30
2017-12-10T14:01:00.586Z,1.40
2017-12-10T14:03:28.009Z,1.00
2017-12-10T14:05:55.495Z,1.27
2017-12-10T14:08:22.894Z,1.10
2017-12-10T14:10:50.338Z,1.30
2017-12-10T14:13:17.732Z,1.50
2017-12-10T14:15:45.162Z,1.40
2017-12-10T14:18:12.557Z,1.20
2017-12-10T14:20:40.003Z,1.33
2017-12-10T14:23:07.399Z,1.90
2017-12-10T14:25:35.053Z,1.47
2017-12-10T14:28:02.468Z,1.80
2017-12-10T14:30:30.031Z,1.53
2017-12-10T14:32:57.432Z,1.60
2017-12-10T14:35:24.899Z,1.70
2017-12-10T14:37:52.292Z,1.70
2017-12-10T14:40:19.734Z,1.50
2017-12-10T14:42:47.154Z,1.60
2017-12-10T14:45:14.691Z,1.40
2017-12-10T14:47:42.183Z,1.60
2017-12-10T14:50:09.613Z,2.23
2017-12-10T14:52:37.006Z,1.90
2017-12-10T14:55:04.493Z,2.00
2017-12-10T14:57:31.974Z,1.60
2017-12-10T14:59:59.454Z,1.80
2017-12-10T15:02:26.905Z,1.80
2017-12-10T15:04:54.364Z,2.27
2017-12-10T15:07:21.852Z,2.00
2017-12-10T15:09:49.315Z,2.33
2017-12-10T15:12:16.791Z,2.20
2017-12-10T15:14:44.195Z,3.13
2017-12-10T15:17:11.655Z,2.37
2017-12-10T15:19:39.079Z,2.70
2017-12-10T15:22:06.515Z,2.67
2017-12-10T15:24:33.937Z,2.60
2017-12-10T15:27:01.402Z,2.20
2017-12-10T15:29:28.929Z,1.90
2017-12-10T15:31:56.370Z,1.60
2017-12-10T15:34:23.775Z,1.60
2017-12-10T15:36:51.296Z,2.27
2017-12-10T15:39:18.713Z,2.00
2017-12-10T15:41:46.215Z,2.10
2017-12-10T15:44:13.624Z,2.40
2017-12-10T15:46:41.055Z,2.00
2017-12-10T15:49:08.517Z,1.83
2017-12-10T15:51:35.986Z,1.70
2017-12-10T15:54:03.475Z,1.70
2017-12-10T15:56:31.027Z,1.90
2017-12-10T15:58:58.606Z,1.80
2017-12-10T16:01:26.075Z,1.73
2017-12-10T16:03:53.472Z,1.73
2017-12-10T16:06:21.020Z,1.90
2017-12-10T16:08:48.523Z,1.67
2017-12-10T16:11:15.914Z,1.70
2017-12-10T16:13:43.425Z,1.60
2017-12-10T16:16:10.822Z,1.77
2017-12-10T16:18:38.262Z,1.70
2017-12-10T16:21:05.738Z,1.73
2017-12-10T16:23:33.349Z,1.40
2017-12-10T16:26:00.774Z,2.07
2017-12-10T16:28:28.264Z,4.07
2017-12-10T16:30:55.710Z,1.50
2017-12-10T16:33:23.197Z,1.40
2017-12-10T16:35:50.658Z,1.83
2017-12-10T16:38:18.091Z,1.70
2017-12-10T16:40:45.499Z,1.40
2017-12-10T16:43:12.950Z,1.40
2017-12-10T16:45:40.439Z,1.30
2017-12-10T16:48:07.898Z,1.37
2017-12-10T16:50:35.299Z,1.33
2017-12-10T16:53:02.807Z,1.57
2017-12-10T16:55:30.260Z,1.40
2017-12-10T16:57:57.693Z,1.70
2017-12-10T17:00:25.113Z,1.40
2017-12-10T17:02:52.674Z,1.60
2017-12-10T17:05:20.122Z,1.80
2017-12-10T17:07:47.589Z,1.50
2017-12-10T17:10:15.055Z,1.30
2017-12-10T17:12:42.524Z,1.77
2017-12-10T17:15:09.971Z,1.60
2017-12-10T17:17:37.437Z,1.70
2017-12-10T17:20:04.862Z,1.60
2017-12-10T17:22:32.325Z,1.37
2017-12-10T17:24:59.888Z,1.40
2017-12-10T17:27:27.286Z,1.60
2017-12-10T17:29:54.757Z,1.50
2017-12-10T17:32:22.266Z,1.80
2017-12-10T17:34:49.722Z,1.60
2017-12-10T17:37:17.115Z,1.40
2017-12-10T17:39:44.671Z,1.50
2017-12-10T17:42:12.057Z,1.80
2017-12-10T17:44:39.552Z,1.70
2017-12-10T17:47:06.955Z,1.80
2017-12-10T17:49:34.414Z,1.33
2017-12-10T17:52:01.816Z,1.40
2017-12-10T17:54:29.319Z,1.30
2017-12-10T17:56:56.809Z,1.40
2017-12-10T17:59:24.353Z,1.13
2017-12-10T18:01:51.751Z,1.77
2017-12-10T18:04:19.191Z,1.40
2017-12-10T18:06:46.649Z,1.30
2017-12-10T18:09:14.082Z,1.40
2017-12-10T18:11:41.494Z,1.30
2017-12-10T18:14:08.960Z,1.43
2017-12-10T18:16:36.415Z,1.47
2017-12-10T18:19:03.862Z,1.77
2017-12-10T18:21:31.290Z,1.40
2017-12-10T18:23:58.775Z,1.87
2017-12-10T18:26:26.227Z,1.30
2017-12-10T18:28:53.666Z,1.23
2017-12-10T18:31:21.096Z,1.43
2017-12-10T18:33:48.527Z,1.20
2017-12-10T18:36:15.989Z,1.30
2017-12-10T18:38:43.452Z,1.50
2017-12-10T18:41:10.883Z,1.20
2017-12-10T18:43:38.392Z,1.40
2017-12-10T18:46:08.943Z,1.40
2017-12-10T18:48:36.322Z,1.30
2017-12-10T18:51:03.806Z,1.20
2017-12-10T18:53:31.210Z,1.13
2017-12-10T18:55:58.647Z,1.23
2017-12-10T18:58:26.783Z,1.30
2017-12-10T19:00:54.311Z,1.20
2017-12-10T19:03:21.828Z,1.37
2017-12-10T19:05:49.256Z,1.20
2017-12-10T19:08:16.700Z,1.27
2017-12-10T19:10:44.186Z,1.43
2017-12-10T19:13:11.578Z,1.13
2017-12-10T19:15:39.237Z,1.67
2017-12-10T19:18:06.644Z,1.23
2017-12-10T19:20:34.093Z,1.27
2017-12-10T19:23:01.531Z,1.30
2017-12-10T19:25:29.042Z,1.00
2017-12-10T19:27:56.522Z,1.30
2017-12-10T19:30:23.994Z,0.90
2017-12-10T19:32:51.478Z,1.20
2017-12-10T19:35:18.935Z,1.27
2017-12-10T19:37:46.422Z,1.10
2017-12-10T19:40:13.888Z,1.30
2017-12-10T19:42:42.269Z,1.10
2017-12-10T19:45:09.739Z,1.10
2017-12-10T19:47:37.214Z,1.33
2017-12-10T19:50:04.614Z,1.30
2017-12-10T19:52:32.200Z,1.40
2017-12-10T19:54:59.720Z,1.13
2017-12-10T19:57:27.257Z,1.33
2017-12-10T19:59:54.807Z,1.13
2017-12-10T20:02:22.850Z,1.17
2017-12-10T20:04:50.331Z,0.90
2017-12-10T20:07:17.855Z,1.00
2017-12-10T20:09:45.212Z,1.27
2017-12-10T20:12:12.646Z,1.10
2017-12-10T20:14:40.040Z,1.23
2017-12-10T20:17:07.475Z,1.07
2017-12-10T20:19:34.868Z,1.20
2017-12-10T20:22:02.303Z,1.10
2017-12-10T20:24:29.720Z,1.27
2017-12-10T20:26:57.167Z,1.67
2017-12-10T20:29:24.591Z,1.30
2017-12-10T20:31:52.090Z,1.10
2017-12-10T20:34:19.556Z,1.07
2017-12-10T20:36:47.056Z,1.00
2017-12-10T20:39:14.441Z,1.00
2017-12-10T20:41:41.881Z,1.00
2017-12-10T20:44:09.343Z,1.07
2017-12-10T20:46:36.784Z,1.00
2017-12-10T20:49:04.254Z,1.00
2017-12-10T20:51:31.657Z,1.00
2017-12-10T20:53:59.084Z,1.03
2017-12-10T20:56:26.487Z,1.00
2017-12-10T20:58:53.972Z,1.00
2017-12-10T21:01:21.375Z,1.20
2017-12-10T21:03:48.884Z,0.90
2017-12-10T21:06:16.323Z,1.00
2017-12-10T21:08:43.762Z,1.10
2017-12-10T21:11:11.164Z,0.80
2017-12-10T21:13:38.590Z,0.90
2017-12-10T21:16:06.015Z,1.00
2017-12-10T21:18:33.493Z,1.20
2017-12-10T21:21:01.032Z,1.10
2017-12-10T21:23:28.520Z,1.50
2017-12-10T21:25:55.974Z,0.90
2017-12-10T21:28:23.487Z,0.90
2017-12-10T21:30:50.938Z,0.80
2017-12-10T21:33:18.417Z,1.00
2017-12-10T21:35:45.807Z,0.90
2017-12-10T21:38:13.250Z,0.90
2017-12-10T21:40:40.630Z,0.80
2017-12-10T21:43:08.118Z,1.83
2017-12-10T21:45:35.519Z,1.00
2017-12-10T21:48:03.005Z,0.90
2017-12-10T21:50:30.454Z,1.10
2017-12-10T21:52:57.891Z,0.90
2017-12-10T21:55:25.332Z,0.97
2017-12-10T21:57:52.728Z,1.10
2017-12-10T22:00:20.161Z,1.20
2017-12-10T22:02:47.576Z,1.77
2017-12-10T22:05:15.019Z,1.30
2017-12-10T22:07:42.506Z,1.00
2017-12-10T22:10:10.066Z,0.90
2017-12-10T22:12:37.560Z,1.00
2017-12-10T22:15:04.990Z,1.00
2017-12-10T22:17:32.406Z,0.90
2017-12-10T22:19:59.965Z,0.90
2017-12-10T22:22:27.369Z,1.20
2017-12-10T22:24:54.801Z,1.10
2017-12-10T22:27:22.197Z,0.83
2017-12-10T22:29:49.679Z,1.07
2017-12-10T22:32:17.155Z,1.00
2017-12-10T22:34:44.595Z,1.00
2017-12-10T22:37:11.990Z,1.10
2017-12-10T22:39:39.426Z,1.73
2017-12-10T22:42:06.880Z,1.30
2017-12-10T22:44:34.351Z,1.43
2017-12-10T22:47:01.788Z,2.20
2017-12-10T22:49:29.285Z,1.57
2017-12-10T22:51:56.698Z,1.83
2017-12-10T22:54:24.134Z,1.73
2017-12-10T22:56:51.522Z,1.20
2017-12-10T22:59:18.960Z,1.50
2017-12-10T23:01:46.428Z,1.00
2017-12-10T23:04:13.898Z,1.03
2017-12-10T23:06:41.367Z,2.57
2017-12-10T23:09:08.834Z,1.70
2017-12-10T23:11:36.267Z,1.47
2017-12-10T23:14:06.299Z,1.90
2017-12-10T23:16:34.161Z,1.20
2017-12-10T23:19:01.630Z,1.30
2017-12-10T23:21:29.181Z,1.33
2017-12-10T23:23:56.651Z,1.60
2017-12-10T23:26:24.095Z,1.70
2017-12-10T23:28:51.482Z,1.20
2017-12-10T23:31:18.909Z,1.70
2017-12-10T23:33:46.479Z,1.60
2017-12-10T23:36:13.923Z,1.80
2017-12-10T23:38:41.314Z,1.13
2017-12-10T23:41:08.735Z,1.40
2017-12-10T23:43:36.121Z,1.17
2017-12-10T23:46:03.658Z,2.13
2017-12-10T23:48:31.061Z,1.20
2017-12-10T23:50:58.645Z,1.00
2017-12-10T23:53:26.025Z,1.03
2017-12-10T23:55:53.456Z,1.20
2017-12-10T23:58:20.894Z,1.20
